Time;durP1;ratioP1;P1;durP2;ratioP2;P2;SDS_P1;SDS_P2;PMS_P1;PMS_P2;Temp;Humidity;BMP_temperature;BMP_pressure;BME280_temperature;BME280_humidity;BME280_pressure;Samples;Min_cycle;Max_cycle;Signal;HPM_P1;HPM_P2
2022/11/10 00:00:05;;;;;;;76.17;45.67;;;;;;;;;;4977915;28;20198;-80
2022/11/10 00:02:32;;;;;;;72.23;45.80;;;;;;;;;;4992057;28;20238;-81
2022/11/10 00:04:58;;;;;;;97.53;52.10;;;;;;;;;;4989215;28;20176;-81
2022/11/10 00:07:25;;;;;;;84.80;49.03;;;;;;;;;;4997267;28;20188;-80
2022/11/10 00:09:53;;;;;;;79.13;49.20;;;;;;;;;;4999706;28;20214;-80
2022/11/10 00:12:20;;;;;;;81.17;50.27;;;;;;;;;;5008029;28;20187;-81
2022/11/10 00:17:31;;;;;;;79.23;49.07;;;;;;;;;;4974176;28;20597;-81
2022/11/10 00:19:57;;;;;;;69.70;45.03;;;;;;;;;;4989665;28;20192;-82
2022/11/10 00:22:23;;;;;;;75.33;48.00;;;;;;;;;;4985225;28;20236;-81
2022/11/10 00:24:49;;;;;;;97.47;53.60;;;;;;;;;;4979971;28;20639;-81
2022/11/10 00:27:15;;;;;;;84.70;48.47;;;;;;;;;;4989714;28;20227;-81
2022/11/10 00:29:41;;;;;;;96.50;54.27;;;;;;;;;;4999374;28;20271;-80
2022/11/10 00:32:08;;;;;;;86.27;50.03;;;;;;;;;;5003317;28;20172;-81
2022/11/10 00:34:34;;;;;;;85.97;47.87;;;;;;;;;;5012558;28;20184;-81
2022/11/10 00:37:00;;;;;;;69.53;44.93;;;;;;;;;;5011182;28;20199;-81
2022/11/10 00:39:26;;;;;;;110.57;55.17;;;;;;;;;;5002865;28;20199;-80
2022/11/10 00:41:52;;;;;;;92.37;50.73;;;;;;;;;;5030905;28;20293;-78
2022/11/10 00:44:18;;;;;;;68.67;44.93;;;;;;;;;;5015631;28;20190;-80
2022/11/10 00:46:44;;;;;;;74.77;47.43;;;;;;;;;;5030683;28;20207;-80
2022/11/10 00:49:10;;;;;;;70.50;46.03;;;;;;;;;;5024406;28;20180;-81
2022/11/10 00:51:37;;;;;;;72.40;46.43;;;;;;;;;;5004040;28;20259;-81
2022/11/10 00:54:03;;;;;;;83.57;48.10;;;;;;;;;;5029713;28;20232;-81
2022/11/10 00:56:29;;;;;;;81.90;48.03;;;;;;;;;;5014328;28;20206;-80
2022/11/10 00:58:55;;;;;;;85.53;50.07;;;;;;;;;;5029915;28;20199;-81
2022/11/10 01:01:26;;;;;;;69.50;45.80;;;;;;;;;;5023416;28;20191;-82
2022/11/10 01:03:52;;;;;;;72.83;46.73;;;;;;;;;;5005219;28;20200;-81
2022/11/10 01:06:19;;;;;;;70.33;45.00;;;;;;;;;;5004800;28;20184;-81
2022/11/10 01:08:45;;;;;;;89.53;50.60;;;;;;;;;;4990594;28;20180;-81
2022/11/10 01:11:11;;;;;;;87.43;51.23;;;;;;;;;;4988316;28;20558;-81
2022/11/10 01:13:37;;;;;;;85.83;50.00;;;;;;;;;;4986510;28;20191;-81
2022/11/10 01:16:04;;;;;;;77.37;48.53;;;;;;;;;;4990986;28;20206;-81
2022/11/10 01:18:30;;;;;;;69.73;45.93;;;;;;;;;;4990678;28;20184;-81
2022/11/10 01:20:56;;;;;;;101.00;53.03;;;;;;;;;;4975575;28;20227;-81
2022/11/10 01:23:22;;;;;;;78.50;47.53;;;;;;;;;;4990839;28;20682;-81
2022/11/10 01:25:48;;;;;;;77.93;48.70;;;;;;;;;;4990401;28;20191;-81
2022/11/10 01:28:14;;;;;;;87.13;52.17;;;;;;;;;;4988672;28;20180;-81
2022/11/10 01:30:40;;;;;;;86.47;50.87;;;;;;;;;;4994746;28;20214;-82
2022/11/10 01:33:06;;;;;;;72.13;47.17;;;;;;;;;;4978686;28;20191;-81
2022/11/10 01:35:33;;;;;;;84.17;49.87;;;;;;;;;;5010965;28;20547;-81
2022/11/10 01:37:59;;;;;;;94.93;51.13;;;;;;;;;;4984094;28;20188;-81
2022/11/10 01:40:25;;;;;;;86.90;49.37;;;;;;;;;;4979656;28;20555;-82
2022/11/10 01:42:53;;;;;;;88.03;52.30;;;;;;;;;;4988644;28;20219;-81
2022/11/10 01:45:22;;;;;;;83.13;49.00;;;;;;;;;;4980128;28;20190;-82
2022/11/10 01:47:53;;;;;;;73.73;47.97;;;;;;;;;;4993133;28;20258;-81
2022/11/10 01:50:19;;;;;;;77.50;49.43;;;;;;;;;;4980390;28;20211;-81
2022/11/10 01:52:47;;;;;;;74.93;48.27;;;;;;;;;;4991482;28;20196;-81
2022/11/10 01:55:14;;;;;;;100.13;52.93;;;;;;;;;;5006735;28;20181;-81
2022/11/10 01:57:41;;;;;;;88.27;50.43;;;;;;;;;;4984073;28;20183;-81
2022/11/10 02:00:08;;;;;;;96.00;52.87;;;;;;;;;;5010216;28;20188;-81
2022/11/10 02:02:52;;;;;;;82.73;51.27;;;;;;;;;;5006237;28;20183;-81
2022/11/10 02:05:19;;;;;;;95.87;53.40;;;;;;;;;;4997290;28;20180;-81
2022/11/10 02:07:45;;;;;;;79.83;50.10;;;;;;;;;;4991080;28;20194;-81
2022/11/10 02:10:16;;;;;;;78.87;48.77;;;;;;;;;;4989501;28;20204;-81
2022/11/10 02:12:43;;;;;;;82.13;49.27;;;;;;;;;;4990676;28;20184;-81
2022/11/10 02:15:10;;;;;;;99.37;53.73;;;;;;;;;;4977998;28;20184;-81
2022/11/10 02:17:36;;;;;;;81.93;50.33;;;;;;;;;;4974839;28;20223;-81
2022/11/10 02:20:04;;;;;;;100.80;53.10;;;;;;;;;;4982852;28;20203;-81
2022/11/10 02:22:31;;;;;;;95.63;51.30;;;;;;;;;;4989264;28;20268;-81
2022/11/10 02:24:57;;;;;;;84.17;48.70;;;;;;;;;;5007555;28;20192;-82
2022/11/10 02:27:23;;;;;;;77.70;47.03;;;;;;;;;;5009252;28;20214;-82
2022/11/10 02:29:49;;;;;;;97.50;51.23;;;;;;;;;;4988593;28;20219;-81
2022/11/10 02:32:15;;;;;;;86.67;50.70;;;;;;;;;;4993523;28;20195;-82
2022/11/10 02:34:42;;;;;;;99.53;52.63;;;;;;;;;;4986224;28;20188;-82
2022/11/10 02:37:09;;;;;;;91.73;51.90;;;;;;;;;;4985360;28;20584;-81
2022/11/10 02:39:35;;;;;;;78.77;48.93;;;;;;;;;;5008369;28;20183;-82
2022/11/10 02:42:01;;;;;;;72.87;46.87;;;;;;;;;;4992303;28;20244;-81
2022/11/10 02:44:27;;;;;;;74.47;45.80;;;;;;;;;;4990471;28;20188;-81
2022/11/10 02:46:53;;;;;;;69.47;46.23;;;;;;;;;;5008250;28;20234;-81
2022/11/10 02:49:19;;;;;;;71.67;46.90;;;;;;;;;;4988589;28;20200;-82
2022/11/10 02:51:45;;;;;;;76.67;48.17;;;;;;;;;;4984384;28;20242;-81
2022/11/10 02:54:11;;;;;;;70.00;45.37;;;;;;;;;;5008338;28;20520;-81
2022/11/10 02:56:37;;;;;;;69.80;44.93;;;;;;;;;;4992854;28;20632;-81
2022/11/10 02:59:03;;;;;;;70.83;45.90;;;;;;;;;;5008680;28;20194;-81
2022/11/10 03:01:29;;;;;;;67.63;44.73;;;;;;;;;;5008190;28;20491;-81
2022/11/10 03:03:55;;;;;;;66.67;45.50;;;;;;;;;;5005261;28;20205;-81
2022/11/10 03:06:21;;;;;;;70.20;45.10;;;;;;;;;;4978712;28;20637;-81
2022/11/10 03:08:47;;;;;;;69.20;46.13;;;;;;;;;;4992953;28;20192;-82
2022/11/10 03:11:13;;;;;;;69.27;45.47;;;;;;;;;;4991579;28;20230;-81
2022/11/10 03:13:39;;;;;;;76.30;47.40;;;;;;;;;;4988722;28;20570;-81
2022/11/10 03:16:06;;;;;;;70.80;44.87;;;;;;;;;;4986075;28;20206;-81
2022/11/10 03:18:32;;;;;;;72.50;46.53;;;;;;;;;;4979698;28;20184;-81
2022/11/10 03:20:58;;;;;;;76.60;47.03;;;;;;;;;;4992754;28;20819;-81
2022/11/10 03:23:24;;;;;;;67.33;44.63;;;;;;;;;;5003358;28;20188;-81
2022/11/10 03:25:50;;;;;;;69.93;46.17;;;;;;;;;;5005241;28;20191;-82
2022/11/10 03:28:16;;;;;;;68.13;45.80;;;;;;;;;;4990937;28;20191;-81
2022/11/10 03:30:42;;;;;;;76.23;44.83;;;;;;;;;;4988268;28;20934;-82
2022/11/10 03:33:08;;;;;;;76.37;47.30;;;;;;;;;;4991682;28;20961;-81
2022/11/10 03:35:34;;;;;;;75.73;46.87;;;;;;;;;;4991965;28;20176;-81
2022/11/10 03:38:00;;;;;;;74.50;47.07;;;;;;;;;;4982036;28;20196;-81
2022/11/10 03:40:26;;;;;;;77.03;47.17;;;;;;;;;;4977863;28;20189;-81
2022/11/10 03:42:53;;;;;;;68.77;45.00;;;;;;;;;;4977923;28;20181;-80
2022/11/10 03:45:19;;;;;;;75.40;46.43;;;;;;;;;;4977630;28;20218;-82
2022/11/10 03:47:45;;;;;;;68.90;45.43;;;;;;;;;;4992000;28;20207;-81
2022/11/10 03:50:12;;;;;;;68.20;44.43;;;;;;;;;;4980985;28;20205;-81
2022/11/10 03:52:39;;;;;;;62.57;42.57;;;;;;;;;;4986631;28;20188;-81
2022/11/10 03:55:05;;;;;;;74.80;48.30;;;;;;;;;;4992083;28;20184;-82
2022/11/10 03:57:31;;;;;;;68.47;45.90;;;;;;;;;;4992146;28;20245;-82
2022/11/10 03:59:57;;;;;;;77.50;46.77;;;;;;;;;;4991391;28;20185;-81
2022/11/10 04:02:23;;;;;;;67.97;45.57;;;;;;;;;;4989599;28;20184;-81
2022/11/10 04:10:18;;;;;;;66.80;44.07;;;;;;;;;;4981605;28;20323;-82
2022/11/10 04:15:40;;;;;;;66.00;44.73;;;;;;;;;;4978354;28;20218;-81
2022/11/10 04:18:25;;;;;;;67.87;44.07;;;;;;;;;;4990938;28;20206;-82
2022/11/10 04:20:58;;;;;;;70.33;44.17;;;;;;;;;;4987567;28;20225;-82
2022/11/10 04:23:26;;;;;;;67.33;44.30;;;;;;;;;;4991389;28;20659;-82
2022/11/10 04:28:41;;;;;;;71.97;45.63;;;;;;;;;;4990692;28;20194;-81
2022/11/10 04:31:08;;;;;;;65.40;42.97;;;;;;;;;;5006305;28;20250;-82
2022/11/10 04:33:34;;;;;;;71.10;44.07;;;;;;;;;;4988177;28;20618;-82
2022/11/10 04:36:00;;;;;;;66.53;42.80;;;;;;;;;;4990556;28;20191;-82
2022/11/10 04:38:26;;;;;;;67.30;43.83;;;;;;;;;;4991420;28;20217;-82
2022/11/10 04:40:52;;;;;;;65.70;44.13;;;;;;;;;;5007154;28;20691;-82
2022/11/10 04:43:18;;;;;;;69.00;44.17;;;;;;;;;;4988820;28;20595;-81
2022/11/10 04:45:44;;;;;;;71.83;44.80;;;;;;;;;;5006075;28;20180;-82
2022/11/10 04:48:10;;;;;;;65.37;43.93;;;;;;;;;;4991614;28;20191;-81
2022/11/10 04:50:36;;;;;;;71.00;43.70;;;;;;;;;;4991647;28;20267;-81
2022/11/10 04:53:02;;;;;;;73.27;44.30;;;;;;;;;;4989432;28;20238;-82
2022/11/10 04:55:28;;;;;;;66.60;44.40;;;;;;;;;;4988964;28;20273;-81
2022/11/10 04:57:54;;;;;;;74.13;46.60;;;;;;;;;;5006459;28;20597;-82
2022/11/10 05:00:21;;;;;;;71.73;45.73;;;;;;;;;;4977027;28;20274;-82
2022/11/10 05:02:46;;;;;;;70.40;45.37;;;;;;;;;;4994718;28;20176;-82
2022/11/10 05:05:12;;;;;;;71.73;46.07;;;;;;;;;;4987660;28;20545;-83
2022/11/10 05:07:38;;;;;;;78.30;49.00;;;;;;;;;;4997730;28;20187;-82
2022/11/10 05:10:05;;;;;;;84.97;48.70;;;;;;;;;;4994589;28;20230;-82
2022/11/10 05:12:31;;;;;;;77.73;46.73;;;;;;;;;;4989394;28;20201;-82
2022/11/10 05:14:57;;;;;;;71.00;46.67;;;;;;;;;;4990680;28;20183;-82
2022/11/10 05:17:23;;;;;;;74.97;47.33;;;;;;;;;;4990522;28;20195;-82
2022/11/10 05:19:49;;;;;;;81.47;48.00;;;;;;;;;;4989719;28;20257;-82
2022/11/10 05:22:15;;;;;;;84.07;47.60;;;;;;;;;;4984158;28;20223;-82
2022/11/10 05:24:41;;;;;;;78.20;48.23;;;;;;;;;;4976638;28;20191;-82
2022/11/10 05:27:07;;;;;;;87.40;50.67;;;;;;;;;;4988850;28;20275;-82
2022/11/10 05:29:33;;;;;;;90.13;53.17;;;;;;;;;;4988008;28;20234;-81
2022/11/10 05:31:59;;;;;;;86.80;49.47;;;;;;;;;;4986937;28;20222;-82
2022/11/10 05:34:25;;;;;;;84.00;50.03;;;;;;;;;;4991240;28;20246;-82
2022/11/10 05:36:51;;;;;;;84.50;49.90;;;;;;;;;;4977825;28;20618;-81
2022/11/10 05:39:17;;;;;;;96.37;51.33;;;;;;;;;;5005267;28;20191;-82
2022/11/10 05:41:43;;;;;;;96.33;52.07;;;;;;;;;;4990305;28;20234;-82
2022/11/10 05:44:09;;;;;;;96.30;52.57;;;;;;;;;;4985926;28;20241;-82
2022/11/10 05:46:35;;;;;;;103.60;55.20;;;;;;;;;;4988465;28;20191;-82
2022/11/10 05:49:01;;;;;;;99.93;54.00;;;;;;;;;;4986125;28;20180;-82
2022/11/10 05:51:28;;;;;;;87.67;51.30;;;;;;;;;;4977168;28;20270;-82
2022/11/10 05:53:54;;;;;;;90.17;51.70;;;;;;;;;;4995654;28;20180;-82
2022/11/10 05:56:20;;;;;;;93.00;50.40;;;;;;;;;;4983758;28;20238;-82
2022/11/10 05:58:46;;;;;;;96.27;52.43;;;;;;;;;;4979579;28;20192;-82
2022/11/10 06:01:12;;;;;;;92.97;53.17;;;;;;;;;;4979104;28;20191;-82
2022/11/10 06:03:38;;;;;;;92.03;52.30;;;;;;;;;;5005500;28;20227;-81
2022/11/10 06:06:04;;;;;;;89.10;51.23;;;;;;;;;;4989525;28;20199;-81
2022/11/10 06:08:30;;;;;;;106.87;52.73;;;;;;;;;;4989215;28;20191;-82
2022/11/10 06:10:56;;;;;;;111.40;55.20;;;;;;;;;;4984288;28;20207;-82
2022/11/10 06:13:22;;;;;;;94.47;51.83;;;;;;;;;;5006342;28;20184;-82
2022/11/10 06:15:48;;;;;;;97.97;53.30;;;;;;;;;;5009158;28;20323;-82
2022/11/10 06:18:14;;;;;;;94.40;51.97;;;;;;;;;;4991883;28;20232;-82
2022/11/10 06:20:40;;;;;;;92.27;50.87;;;;;;;;;;4993673;28;20224;-82
2022/11/10 06:23:09;;;;;;;93.77;51.67;;;;;;;;;;5008553;28;20187;-81
2022/11/10 06:25:35;;;;;;;103.23;53.93;;;;;;;;;;5007894;28;20191;-81
2022/11/10 06:28:02;;;;;;;94.80;51.53;;;;;;;;;;4988648;28;20210;-80
2022/11/10 06:30:28;;;;;;;96.60;53.03;;;;;;;;;;4984333;28;20211;-81
2022/11/10 06:32:54;;;;;;;94.70;50.43;;;;;;;;;;4993578;28;20586;-81
2022/11/10 06:35:21;;;;;;;94.00;50.10;;;;;;;;;;4993353;28;20539;-81
2022/11/10 06:38:01;;;;;;;106.47;51.97;;;;;;;;;;4991881;28;20234;-81
2022/11/10 06:40:27;;;;;;;111.07;52.20;;;;;;;;;;5005285;28;20703;-81
2022/11/10 06:42:53;;;;;;;95.13;49.03;;;;;;;;;;4993255;28;20211;-79
2022/11/10 06:45:20;;;;;;;115.80;54.50;;;;;;;;;;4992013;28;20293;-81
2022/11/10 06:47:46;;;;;;;97.80;51.77;;;;;;;;;;4992317;28;20183;-82
2022/11/10 06:50:12;;;;;;;115.07;55.00;;;;;;;;;;4979477;28;20748;-80
2022/11/10 06:52:38;;;;;;;96.00;50.50;;;;;;;;;;4980372;28;20243;-81
2022/11/10 06:55:04;;;;;;;100.63;52.90;;;;;;;;;;4982337;28;20230;-80
2022/11/10 06:57:36;;;;;;;103.27;53.03;;;;;;;;;;4974524;28;20238;-81
2022/11/10 07:00:03;;;;;;;87.93;49.03;;;;;;;;;;4987237;28;20230;-80
2022/11/10 07:02:29;;;;;;;105.40;52.13;;;;;;;;;;4994607;28;20190;-80
2022/11/10 07:04:55;;;;;;;92.63;50.27;;;;;;;;;;4982011;28;20188;-83
2022/11/10 07:07:21;;;;;;;86.27;48.17;;;;;;;;;;4984193;28;20242;-82
2022/11/10 07:09:47;;;;;;;98.80;50.47;;;;;;;;;;5003022;28;20219;-83
2022/11/10 07:12:13;;;;;;;94.80;49.90;;;;;;;;;;4987140;28;20537;-81
2022/11/10 07:14:39;;;;;;;83.00;47.77;;;;;;;;;;5008506;28;20183;-82
2022/11/10 07:17:05;;;;;;;97.60;48.17;;;;;;;;;;4992216;28;20187;-82
2022/11/10 07:19:31;;;;;;;90.77;48.00;;;;;;;;;;4990503;28;20180;-82
2022/11/10 07:21:57;;;;;;;103.17;51.27;;;;;;;;;;4988521;28;20862;-82
2022/11/10 07:24:23;;;;;;;79.30;45.00;;;;;;;;;;4977585;28;20188;-83
2022/11/10 07:26:49;;;;;;;86.07;47.30;;;;;;;;;;4992164;28;20190;-83
2022/11/10 07:29:15;;;;;;;92.50;47.73;;;;;;;;;;4987427;28;20188;-84
2022/11/10 07:31:41;;;;;;;91.00;47.30;;;;;;;;;;4992890;28;20207;-83
2022/11/10 07:34:07;;;;;;;92.77;46.83;;;;;;;;;;5007868;28;20179;-84
2022/11/10 07:36:33;;;;;;;88.30;47.93;;;;;;;;;;4993724;28;20184;-83
2022/11/10 07:38:59;;;;;;;86.17;47.03;;;;;;;;;;4990522;28;20185;-83
2022/11/10 07:41:26;;;;;;;80.13;44.67;;;;;;;;;;4993768;28;20194;-83
2022/11/10 07:43:52;;;;;;;86.57;45.60;;;;;;;;;;4992586;28;20192;-82
2022/11/10 07:46:18;;;;;;;89.40;47.27;;;;;;;;;;4990042;28;20223;-82
2022/11/10 07:48:44;;;;;;;79.17;44.60;;;;;;;;;;5008081;28;20244;-83
2022/11/10 07:51:10;;;;;;;95.13;46.80;;;;;;;;;;4993069;28;20258;-82
2022/11/10 07:53:37;;;;;;;89.40;46.20;;;;;;;;;;4990787;28;20186;-82
2022/11/10 07:56:03;;;;;;;88.23;45.17;;;;;;;;;;4992444;28;20226;-81
2022/11/10 07:58:29;;;;;;;77.63;43.70;;;;;;;;;;5004434;28;20211;-82
2022/11/10 08:00:55;;;;;;;80.40;43.73;;;;;;;;;;4986715;28;20243;-82
2022/11/10 08:03:22;;;;;;;74.00;44.37;;;;;;;;;;5007356;28;20656;-83
2022/11/10 08:05:48;;;;;;;79.20;42.27;;;;;;;;;;4983542;28;20188;-81
2022/11/10 08:08:14;;;;;;;81.17;44.33;;;;;;;;;;4986159;28;20241;-83
2022/11/10 08:10:41;;;;;;;82.47;44.20;;;;;;;;;;5003171;28;20215;-84
2022/11/10 08:13:08;;;;;;;74.17;42.17;;;;;;;;;;4993845;28;20659;-84
2022/11/10 08:15:35;;;;;;;72.27;41.20;;;;;;;;;;4991827;28;20186;-83
2022/11/10 08:18:21;;;;;;;82.73;45.17;;;;;;;;;;4993145;28;20179;-82
2022/11/10 08:20:47;;;;;;;75.77;43.10;;;;;;;;;;4974019;28;20227;-83
2022/11/10 08:23:14;;;;;;;72.63;41.00;;;;;;;;;;4979131;28;20206;-82
2022/11/10 08:25:40;;;;;;;78.77;42.63;;;;;;;;;;4978399;28;20224;-82
2022/11/10 08:28:06;;;;;;;89.07;44.50;;;;;;;;;;4996390;28;20195;-82
2022/11/10 08:30:33;;;;;;;77.80;42.13;;;;;;;;;;5008101;28;20214;-83
2022/11/10 08:33:00;;;;;;;69.67;40.40;;;;;;;;;;4991583;28;20175;-83
2022/11/10 08:35:27;;;;;;;66.53;38.67;;;;;;;;;;4991974;28;20692;-83
2022/11/10 08:37:54;;;;;;;75.60;41.87;;;;;;;;;;4989831;28;20556;-81
2022/11/10 08:40:21;;;;;;;71.27;38.43;;;;;;;;;;5006252;28;20283;-83
2022/11/10 08:42:47;;;;;;;60.90;37.10;;;;;;;;;;5006739;28;20536;-82
2022/11/10 08:45:14;;;;;;;74.57;40.87;;;;;;;;;;4988410;28;20180;-82
2022/11/10 08:47:40;;;;;;;75.33;41.30;;;;;;;;;;4991719;28;20176;-81
2022/11/10 08:50:06;;;;;;;69.90;40.60;;;;;;;;;;4976296;28;20212;-82
2022/11/10 08:52:32;;;;;;;66.20;38.13;;;;;;;;;;4984188;28;20667;-81
2022/11/10 08:54:58;;;;;;;66.23;38.40;;;;;;;;;;5007777;28;20168;-82
2022/11/10 08:57:24;;;;;;;66.83;39.40;;;;;;;;;;4985499;28;20463;-81
2022/11/10 08:59:50;;;;;;;59.50;36.93;;;;;;;;;;4993330;28;20176;-82
2022/11/10 09:02:17;;;;;;;58.40;35.27;;;;;;;;;;4986246;28;20184;-83
2022/11/10 09:04:43;;;;;;;62.17;37.47;;;;;;;;;;4984850;28;20187;-82
2022/11/10 09:07:09;;;;;;;62.30;36.67;;;;;;;;;;4992084;28;20198;-83
2022/11/10 09:09:35;;;;;;;60.87;37.03;;;;;;;;;;4990501;28;20184;-83
2022/11/10 09:12:01;;;;;;;61.33;38.43;;;;;;;;;;4988816;28;20179;-83
2022/11/10 09:14:27;;;;;;;67.23;38.00;;;;;;;;;;4984352;28;20176;-82
2022/11/10 09:16:53;;;;;;;60.00;35.47;;;;;;;;;;4991724;28;20198;-82
2022/11/10 09:19:19;;;;;;;59.33;36.53;;;;;;;;;;5006055;28;20184;-84
2022/11/10 09:21:45;;;;;;;63.03;38.00;;;;;;;;;;5002643;28;20219;-85
2022/11/10 09:24:11;;;;;;;59.50;35.83;;;;;;;;;;5011535;28;20549;-84
2022/11/10 09:26:38;;;;;;;58.23;37.43;;;;;;;;;;4980108;28;20234;-85
2022/11/10 09:29:04;;;;;;;62.73;37.07;;;;;;;;;;4987302;28;20191;-85
2022/11/10 09:31:30;;;;;;;57.37;36.00;;;;;;;;;;5002537;28;20635;-85
2022/11/10 09:33:58;;;;;;;59.60;36.27;;;;;;;;;;4982729;28;20186;-84
2022/11/10 09:36:24;;;;;;;57.83;35.83;;;;;;;;;;4991898;28;20270;-83
2022/11/10 09:38:50;;;;;;;61.77;36.03;;;;;;;;;;4992094;28;20179;-83
2022/11/10 09:41:17;;;;;;;55.60;37.13;;;;;;;;;;4990576;28;20199;-82
2022/11/10 09:44:00;;;;;;;55.13;36.23;;;;;;;;;;4985343;28;20194;-83
2022/11/10 09:46:30;;;;;;;54.40;35.90;;;;;;;;;;4986429;28;20187;-83
2022/11/10 09:49:00;;;;;;;56.03;37.23;;;;;;;;;;5008439;28;20184;-82
2022/11/10 09:51:29;;;;;;;57.50;36.70;;;;;;;;;;4994699;28;20262;-84
2022/11/10 09:53:57;;;;;;;55.47;35.03;;;;;;;;;;4989178;28;20701;-83
2022/11/10 09:56:36;;;;;;;58.43;37.50;;;;;;;;;;4991551;28;20212;-82
2022/11/10 09:59:21;;;;;;;60.83;37.83;;;;;;;;;;4992266;28;20188;-84
2022/11/10 10:01:47;;;;;;;57.37;37.43;;;;;;;;;;4995600;28;20187;-83
2022/11/10 10:04:13;;;;;;;54.03;36.23;;;;;;;;;;4993142;28;20528;-82
2022/11/10 10:06:45;;;;;;;52.20;35.30;;;;;;;;;;4995751;28;20336;-82
2022/11/10 10:09:14;;;;;;;56.07;34.70;;;;;;;;;;4995604;28;20507;-82
2022/11/10 10:11:43;;;;;;;53.20;35.27;;;;;;;;;;4976141;28;20303;-85
2022/11/10 10:14:21;;;;;;;49.10;34.17;;;;;;;;;;4987059;28;20902;-83
2022/11/10 10:17:00;;;;;;;56.57;35.30;;;;;;;;;;4994361;28;20184;-84
2022/11/10 10:19:41;;;;;;;52.53;35.67;;;;;;;;;;4996027;28;20188;-83
2022/11/10 10:22:26;;;;;;;56.77;34.67;;;;;;;;;;5010311;28;20700;-85
2022/11/10 10:24:53;;;;;;;45.83;31.87;;;;;;;;;;4996351;28;20250;-83
2022/11/10 10:27:22;;;;;;;48.20;33.47;;;;;;;;;;4991829;28;20275;-83
2022/11/10 10:29:48;;;;;;;46.03;31.47;;;;;;;;;;4982873;28;20207;-82
2022/11/10 10:32:15;;;;;;;45.40;31.53;;;;;;;;;;4993783;28;20689;-83
2022/11/10 10:34:42;;;;;;;41.17;29.97;;;;;;;;;;4995763;28;20543;-84
2022/11/10 10:37:21;;;;;;;42.57;31.03;;;;;;;;;;4990570;28;20258;-83
2022/11/10 10:39:49;;;;;;;40.83;28.73;;;;;;;;;;4979811;28;20184;-82
2022/11/10 10:42:19;;;;;;;39.03;29.20;;;;;;;;;;4995369;28;20225;-81
2022/11/10 10:45:21;;;;;;;39.23;28.77;;;;;;;;;;4975306;28;20320;-83
2022/11/10 10:47:48;;;;;;;35.37;25.93;;;;;;;;;;4972904;28;20199;-84
2022/11/10 10:50:23;;;;;;;38.43;26.23;;;;;;;;;;4973924;28;20224;-84
2022/11/10 10:53:16;;;;;;;34.73;24.60;;;;;;;;;;4973828;28;20195;-83
2022/11/10 10:55:46;;;;;;;35.93;25.07;;;;;;;;;;4970554;28;20192;-85
2022/11/10 10:58:19;;;;;;;32.27;23.77;;;;;;;;;;4956358;28;20660;-83
2022/11/10 11:00:46;;;;;;;33.50;24.73;;;;;;;;;;4973112;28;20197;-82
2022/11/10 11:03:32;;;;;;;30.97;23.00;;;;;;;;;;4973969;28;20185;-84
2022/11/10 11:05:59;;;;;;;32.97;24.67;;;;;;;;;;4947848;28;20645;-84
2022/11/10 11:08:26;;;;;;;29.87;22.73;;;;;;;;;;4956692;28;20201;-83
2022/11/10 11:10:52;;;;;;;30.90;23.20;;;;;;;;;;4975515;28;20239;-83
2022/11/10 11:13:28;;;;;;;28.43;22.57;;;;;;;;;;4969163;28;20642;-84
2022/11/10 11:15:58;;;;;;;31.20;23.70;;;;;;;;;;4941332;28;20224;-83
2022/11/10 11:18:24;;;;;;;33.57;23.37;;;;;;;;;;4954148;28;20208;-82
2022/11/10 11:21:09;;;;;;;33.73;22.83;;;;;;;;;;4970599;28;20640;-82
2022/11/10 11:23:47;;;;;;;30.37;22.17;;;;;;;;;;4971169;28;20197;-82
2022/11/10 11:26:19;;;;;;;30.27;21.10;;;;;;;;;;4971576;28;20590;-83
2022/11/10 11:28:54;;;;;;;28.17;20.80;;;;;;;;;;4974202;28;20528;-79
2022/11/10 11:31:36;;;;;;;29.00;20.43;;;;;;;;;;4990543;28;20211;-82
2022/11/10 11:34:08;;;;;;;25.63;19.47;;;;;;;;;;4977597;28;20185;-80
2022/11/10 11:36:47;;;;;;;29.53;20.27;;;;;;;;;;4993539;28;20173;-81
2022/11/10 11:39:24;;;;;;;23.50;18.73;;;;;;;;;;4992355;28;20180;-82
2022/11/10 11:41:50;;;;;;;26.67;19.37;;;;;;;;;;4997109;28;20282;-83
2022/11/10 11:44:25;;;;;;;23.97;17.97;;;;;;;;;;4987027;28;20184;-81
2022/11/10 11:47:10;;;;;;;27.77;19.23;;;;;;;;;;4989766;28;20247;-82
2022/11/10 11:49:56;;;;;;;26.93;17.43;;;;;;;;;;5010920;28;20248;-81
2022/11/10 11:52:38;;;;;;;26.60;18.20;;;;;;;;;;4978685;28;20239;-80
2022/11/10 11:55:24;;;;;;;23.07;17.00;;;;;;;;;;4978392;28;20180;-83
2022/11/10 11:58:18;;;;;;;25.10;17.77;;;;;;;;;;4995143;28;20200;-83
2022/11/10 12:00:48;;;;;;;25.70;17.67;;;;;;;;;;4994575;28;20188;-81
2022/11/10 12:03:17;;;;;;;21.37;16.17;;;;;;;;;;4993039;28;20241;-82
2022/11/10 12:05:49;;;;;;;21.27;15.83;;;;;;;;;;4992448;28;20219;-83
2022/11/10 12:08:21;;;;;;;26.57;17.87;;;;;;;;;;4977270;28;20172;-83
2022/11/10 12:10:47;;;;;;;24.23;16.83;;;;;;;;;;4985352;28;20236;-83
2022/11/10 12:13:16;;;;;;;25.30;17.20;;;;;;;;;;4974637;28;20212;-83
2022/11/10 12:15:44;;;;;;;22.97;16.97;;;;;;;;;;4938591;28;20188;-82
2022/11/10 12:18:20;;;;;;;24.83;16.87;;;;;;;;;;4957889;28;20263;-81
2022/11/10 12:21:05;;;;;;;24.33;16.40;;;;;;;;;;4974582;28;20251;-82
2022/11/10 12:23:33;;;;;;;25.93;16.30;;;;;;;;;;4969182;28;20251;-82
2022/11/10 12:26:13;;;;;;;28.33;16.57;;;;;;;;;;4971440;28;20283;-81
2022/11/10 12:28:45;;;;;;;22.40;17.77;;;;;;;;;;4973141;28;20267;-80
2022/11/10 12:31:20;;;;;;;25.70;17.33;;;;;;;;;;4969401;28;20221;-82
2022/11/10 12:33:49;;;;;;;24.17;16.47;;;;;;;;;;4955755;28;20184;-81
2022/11/10 12:36:18;;;;;;;22.63;16.97;;;;;;;;;;4954960;28;20185;-83
2022/11/10 12:38:47;;;;;;;23.63;16.57;;;;;;;;;;4939811;28;20186;-83
2022/11/10 12:41:19;;;;;;;25.23;17.60;;;;;;;;;;4944470;29;20186;-83
2022/11/10 12:43:57;;;;;;;20.00;16.40;;;;;;;;;;4944353;28;20216;-82
2022/11/10 12:46:23;;;;;;;25.20;16.67;;;;;;;;;;4947573;28;20191;-83
2022/11/10 12:49:04;;;;;;;23.53;17.57;;;;;;;;;;4955906;28;20268;-81
2022/11/10 12:51:32;;;;;;;22.87;17.07;;;;;;;;;;4951659;28;20205;-82
2022/11/10 12:53:58;;;;;;;21.67;16.53;;;;;;;;;;4951939;29;20177;-81
2022/11/10 12:56:24;;;;;;;24.83;16.43;;;;;;;;;;4950314;28;20550;-82
2022/11/10 12:59:10;;;;;;;20.10;14.80;;;;;;;;;;4947202;28;20182;-82
2022/11/10 13:01:42;;;;;;;21.83;16.47;;;;;;;;;;4943159;28;20199;-82
2022/11/10 13:04:08;;;;;;;25.60;17.63;;;;;;;;;;4938520;28;20217;-82
2022/11/10 13:06:35;;;;;;;23.47;16.60;;;;;;;;;;4953874;28;20550;-82
2022/11/10 13:09:01;;;;;;;19.23;15.50;;;;;;;;;;4935363;28;20266;-83
2022/11/10 13:11:30;;;;;;;21.07;16.23;;;;;;;;;;4945478;28;20229;-82
2022/11/10 13:13:57;;;;;;;22.53;16.23;;;;;;;;;;4940819;28;20197;-82
2022/11/10 13:16:39;;;;;;;25.27;16.13;;;;;;;;;;4939921;28;20197;-81
2022/11/10 13:19:09;;;;;;;24.63;16.93;;;;;;;;;;4954152;28;20189;-82
2022/11/10 13:21:50;;;;;;;21.17;15.20;;;;;;;;;;4974866;28;20250;-81
2022/11/10 13:24:23;;;;;;;21.70;15.70;;;;;;;;;;4995033;28;20202;-81
2022/11/10 13:26:51;;;;;;;25.13;16.50;;;;;;;;;;5013039;28;20187;-81
2022/11/10 13:29:33;;;;;;;22.77;16.43;;;;;;;;;;4988260;28;20180;-82
2022/11/10 13:32:15;;;;;;;19.07;15.47;;;;;;;;;;4992853;28;20195;-82
2022/11/10 13:34:42;;;;;;;22.93;15.80;;;;;;;;;;5011827;28;20187;-82
2022/11/10 13:37:45;;;;;;;23.83;15.37;;;;;;;;;;4993800;28;20230;-82
2022/11/10 13:40:17;;;;;;;19.00;14.83;;;;;;;;;;4971163;28;20712;-82
2022/11/10 13:42:43;;;;;;;24.67;16.67;;;;;;;;;;4948720;28;20650;-82
2022/11/10 13:45:27;;;;;;;20.40;15.40;;;;;;;;;;4955432;28;20263;-84
2022/11/10 13:48:29;;;;;;;22.60;15.93;;;;;;;;;;4971132;28;20195;-81
2022/11/10 13:51:11;;;;;;;23.63;14.80;;;;;;;;;;4916552;29;20233;-81
2022/11/10 13:53:44;;;;;;;18.93;15.07;;;;;;;;;;4908987;29;20340;-81
2022/11/10 13:56:16;;;;;;;18.67;15.40;;;;;;;;;;4913254;29;20191;-82
2022/11/10 13:58:42;;;;;;;21.93;15.53;;;;;;;;;;4916911;29;20202;-81
2022/11/10 14:01:17;;;;;;;21.70;15.13;;;;;;;;;;4914739;29;20613;-82
2022/11/10 14:03:48;;;;;;;23.37;16.10;;;;;;;;;;4915012;29;20178;-81
2022/11/10 14:06:17;;;;;;;20.53;15.10;;;;;;;;;;4894293;29;20182;-81
2022/11/10 14:08:50;;;;;;;24.10;15.80;;;;;;;;;;4900508;29;20570;-82
2022/11/10 14:11:19;;;;;;;25.53;21.10;;;;;;;;;;4899843;29;20237;-83
2022/11/10 14:13:49;;;;;;;18.77;15.90;;;;;;;;;;4918194;29;20719;-83
2022/11/10 14:16:38;;;;;;;24.17;17.97;;;;;;;;;;4919000;29;20214;-83
2022/11/10 14:19:15;;;;;;;25.00;19.73;;;;;;;;;;4916968;29;20725;-81
2022/11/10 14:21:47;;;;;;;24.87;17.70;;;;;;;;;;4918495;29;20229;-83
2022/11/10 14:24:19;;;;;;;45.83;31.87;;;;;;;;;;4946951;28;20199;-84
2022/11/10 14:26:51;;;;;;;29.23;23.17;;;;;;;;;;4994088;28;20644;-82
2022/11/10 14:29:33;;;;;;;26.00;18.33;;;;;;;;;;4985943;28;20180;-82
2022/11/10 14:32:01;;;;;;;31.40;23.73;;;;;;;;;;4994281;28;20314;-83
2022/11/10 14:34:27;;;;;;;32.13;24.33;;;;;;;;;;4995590;28;20219;-84
2022/11/10 14:37:01;;;;;;;37.17;30.97;;;;;;;;;;4993324;28;20192;-82
2022/11/10 14:39:28;;;;;;;23.30;18.67;;;;;;;;;;4994397;28;20211;-82